sensor_id;sensor_type;location;lat;lon;timestamp;P1;durP1;ratioP1;P2;durP2;ratioP2
10082;SDS011;5080;48.528;8.078;2023-03-22T00:00:35;0.70;;;0.70;;
10082;SDS011;5080;48.528;8.078;2023-03-22T00:03:03;0.70;;;0.70;;
10082;SDS011;5080;48.528;8.078;2023-03-22T00:05:30;0.90;;;0.90;;
10082;SDS011;5080;48.528;8.078;2023-03-22T00:07:57;0.67;;;0.67;;
10082;SDS011;5080;48.528;8.078;2023-03-22T00:10:24;0.60;;;0.60;;
10082;SDS011;5080;48.528;8.078;2023-03-22T00:12:53;0.80;;;0.80;;
10082;SDS011;5080;48.528;8.078;2023-03-22T00:15:21;0.70;;;0.70;;
10082;SDS011;5080;48.528;8.078;2023-03-22T00:17:48;0.70;;;0.70;;
10082;SDS011;5080;48.528;8.078;2023-03-22T00:20:16;0.60;;;0.60;;
10082;SDS011;5080;48.528;8.078;2023-03-22T00:22:44;0.87;;;0.87;;
10082;SDS011;5080;48.528;8.078;2023-03-22T00:25:10;0.70;;;0.70;;
10082;SDS011;5080;48.528;8.078;2023-03-22T00:27:37;0.70;;;0.70;;
10082;SDS011;5080;48.528;8.078;2023-03-22T00:30:04;0.93;;;0.80;;
10082;SDS011;5080;48.528;8.078;2023-03-22T00:32:34;0.77;;;0.77;;
10082;SDS011;5080;48.528;8.078;2023-03-22T00:35:01;0.83;;;0.83;;
10082;SDS011;5080;48.528;8.078;2023-03-22T00:37:28;0.73;;;0.73;;
10082;SDS011;5080;48.528;8.078;2023-03-22T00:40:02;1.87;;;0.80;;
10082;SDS011;5080;48.528;8.078;2023-03-22T00:42:32;0.83;;;0.80;;
10082;SDS011;5080;48.528;8.078;2023-03-22T00:44:59;0.80;;;0.80;;
10082;SDS011;5080;48.528;8.078;2023-03-22T00:47:26;1.50;;;0.80;;
10082;SDS011;5080;48.528;8.078;2023-03-22T00:49:54;0.70;;;0.70;;
10082;SDS011;5080;48.528;8.078;2023-03-22T00:52:21;0.90;;;0.90;;
10082;SDS011;5080;48.528;8.078;2023-03-22T00:54:48;0.80;;;0.80;;
10082;SDS011;5080;48.528;8.078;2023-03-22T00:57:15;1.23;;;0.80;;
10082;SDS011;5080;48.528;8.078;2023-03-22T00:59:42;0.77;;;0.77;;
10082;SDS011;5080;48.528;8.078;2023-03-22T01:02:09;0.83;;;0.83;;
10082;SDS011;5080;48.528;8.078;2023-03-22T01:04:38;1.07;;;0.63;;
10082;SDS011;5080;48.528;8.078;2023-03-22T01:07:11;0.63;;;0.63;;
10082;SDS011;5080;48.528;8.078;2023-03-22T01:09:41;0.70;;;0.70;;
10082;SDS011;5080;48.528;8.078;2023-03-22T01:12:08;0.80;;;0.67;;
10082;SDS011;5080;48.528;8.078;2023-03-22T01:14:36;0.80;;;0.80;;
10082;SDS011;5080;48.528;8.078;2023-03-22T01:17:03;0.70;;;0.70;;
10082;SDS011;5080;48.528;8.078;2023-03-22T01:19:31;0.60;;;0.60;;
10082;SDS011;5080;48.528;8.078;2023-03-22T01:21:58;0.70;;;0.70;;
10082;SDS011;5080;48.528;8.078;2023-03-22T01:24:27;0.70;;;0.70;;
10082;SDS011;5080;48.528;8.078;2023-03-22T01:27:27;0.60;;;0.60;;
10082;SDS011;5080;48.528;8.078;2023-03-22T01:30:05;0.73;;;0.73;;
10082;SDS011;5080;48.528;8.078;2023-03-22T01:32:45;0.80;;;0.80;;
10082;SDS011;5080;48.528;8.078;2023-03-22T01:35:17;0.70;;;0.70;;
10082;SDS011;5080;48.528;8.078;2023-03-22T01:37:50;0.63;;;0.63;;
10082;SDS011;5080;48.528;8.078;2023-03-22T01:40:18;0.70;;;0.70;;
10082;SDS011;5080;48.528;8.078;2023-03-22T01:42:48;0.80;;;0.80;;
10082;SDS011;5080;48.528;8.078;2023-03-22T01:48:20;0.70;;;0.70;;
10082;SDS011;5080;48.528;8.078;2023-03-22T01:50:59;0.63;;;0.63;;
10082;SDS011;5080;48.528;8.078;2023-03-22T01:53:31;0.83;;;0.83;;
10082;SDS011;5080;48.528;8.078;2023-03-22T01:56:06;0.60;;;0.60;;
10082;SDS011;5080;48.528;8.078;2023-03-22T01:58:43;0.80;;;0.80;;
10082;SDS011;5080;48.528;8.078;2023-03-22T02:01:11;0.70;;;0.70;;
10082;SDS011;5080;48.528;8.078;2023-03-22T02:03:48;0.70;;;0.70;;
10082;SDS011;5080;48.528;8.078;2023-03-22T02:06:20;0.80;;;0.80;;
10082;SDS011;5080;48.528;8.078;2023-03-22T02:09:02;0.67;;;0.67;;
10082;SDS011;5080;48.528;8.078;2023-03-22T02:11:36;0.80;;;0.80;;
10082;SDS011;5080;48.528;8.078;2023-03-22T02:17:15;0.50;;;0.50;;
10082;SDS011;5080;48.528;8.078;2023-03-22T02:29:46;0.93;;;0.93;;
10082;SDS011;5080;48.528;8.078;2023-03-22T02:35:51;0.70;;;0.70;;
10082;SDS011;5080;48.528;8.078;2023-03-22T02:38:58;0.80;;;0.80;;
10082;SDS011;5080;48.528;8.078;2023-03-22T02:41:46;0.70;;;0.70;;
10082;SDS011;5080;48.528;8.078;2023-03-22T02:44:28;0.75;;;0.75;;
10082;SDS011;5080;48.528;8.078;2023-03-22T02:47:15;0.70;;;0.70;;
10082;SDS011;5080;48.528;8.078;2023-03-22T02:49:49;1.43;;;0.90;;
10082;SDS011;5080;48.528;8.078;2023-03-22T02:52:22;0.63;;;0.63;;
10082;SDS011;5080;48.528;8.078;2023-03-22T02:55:10;0.70;;;0.70;;
10082;SDS011;5080;48.528;8.078;2023-03-22T02:57:47;0.67;;;0.67;;
10082;SDS011;5080;48.528;8.078;2023-03-22T03:00:22;0.93;;;0.93;;
10082;SDS011;5080;48.528;8.078;2023-03-22T03:02:57;0.77;;;0.77;;
10082;SDS011;5080;48.528;8.078;2023-03-22T03:05:37;0.60;;;0.60;;
10082;SDS011;5080;48.528;8.078;2023-03-22T03:08:09;0.80;;;0.80;;
10082;SDS011;5080;48.528;8.078;2023-03-22T03:10:46;0.70;;;0.70;;
10082;SDS011;5080;48.528;8.078;2023-03-22T03:13:30;0.77;;;0.77;;
10082;SDS011;5080;48.528;8.078;2023-03-22T03:15:58;0.80;;;0.80;;
10082;SDS011;5080;48.528;8.078;2023-03-22T03:18:36;1.00;;;1.00;;
10082;SDS011;5080;48.528;8.078;2023-03-22T03:21:16;0.80;;;0.80;;
10082;SDS011;5080;48.528;8.078;2023-03-22T03:23:55;0.80;;;0.80;;
10082;SDS011;5080;48.528;8.078;2023-03-22T03:26:37;0.80;;;0.80;;
10082;SDS011;5080;48.528;8.078;2023-03-22T03:29:19;0.77;;;0.77;;
10082;SDS011;5080;48.528;8.078;2023-03-22T03:31:53;0.80;;;0.80;;
10082;SDS011;5080;48.528;8.078;2023-03-22T03:34:30;0.70;;;0.70;;
10082;SDS011;5080;48.528;8.078;2023-03-22T03:37:04;0.70;;;0.70;;
10082;SDS011;5080;48.528;8.078;2023-03-22T03:39:36;0.80;;;0.80;;
10082;SDS011;5080;48.528;8.078;2023-03-22T03:42:14;1.00;;;1.00;;
10082;SDS011;5080;48.528;8.078;2023-03-22T03:44:43;1.00;;;1.00;;
10082;SDS011;5080;48.528;8.078;2023-03-22T03:47:13;0.70;;;0.70;;
10082;SDS011;5080;48.528;8.078;2023-03-22T03:49:46;0.87;;;0.87;;
10082;SDS011;5080;48.528;8.078;2023-03-22T03:52:14;0.83;;;0.83;;
10082;SDS011;5080;48.528;8.078;2023-03-22T03:54:48;0.87;;;0.87;;
10082;SDS011;5080;48.528;8.078;2023-03-22T03:57:19;0.90;;;0.90;;
10082;SDS011;5080;48.528;8.078;2023-03-22T03:59:48;0.80;;;0.80;;
10082;SDS011;5080;48.528;8.078;2023-03-22T04:02:19;1.13;;;0.97;;
10082;SDS011;5080;48.528;8.078;2023-03-22T04:04:53;1.00;;;1.00;;
10082;SDS011;5080;48.528;8.078;2023-03-22T04:07:26;0.90;;;0.90;;
10082;SDS011;5080;48.528;8.078;2023-03-22T04:09:53;1.13;;;0.80;;
10082;SDS011;5080;48.528;8.078;2023-03-22T04:12:22;0.80;;;0.80;;
10082;SDS011;5080;48.528;8.078;2023-03-22T04:14:53;0.80;;;0.80;;
10082;SDS011;5080;48.528;8.078;2023-03-22T04:17:23;0.77;;;0.77;;
10082;SDS011;5080;48.528;8.078;2023-03-22T04:19:53;0.80;;;0.80;;
10082;SDS011;5080;48.528;8.078;2023-03-22T04:22:22;0.63;;;0.63;;
10082;SDS011;5080;48.528;8.078;2023-03-22T04:24:50;1.00;;;1.00;;
10082;SDS011;5080;48.528;8.078;2023-03-22T04:27:18;1.00;;;1.00;;
10082;SDS011;5080;48.528;8.078;2023-03-22T04:29:49;0.90;;;0.90;;
10082;SDS011;5080;48.528;8.078;2023-03-22T04:32:20;0.90;;;0.90;;
10082;SDS011;5080;48.528;8.078;2023-03-22T04:34:50;0.90;;;0.90;;
10082;SDS011;5080;48.528;8.078;2023-03-22T04:37:20;0.73;;;0.73;;
10082;SDS011;5080;48.528;8.078;2023-03-22T04:39:52;0.90;;;0.90;;
10082;SDS011;5080;48.528;8.078;2023-03-22T04:42:21;0.93;;;0.87;;
10082;SDS011;5080;48.528;8.078;2023-03-22T04:44:50;1.03;;;1.00;;
10082;SDS011;5080;48.528;8.078;2023-03-22T04:47:18;0.80;;;0.80;;
10082;SDS011;5080;48.528;8.078;2023-03-22T04:49:46;1.00;;;1.00;;
10082;SDS011;5080;48.528;8.078;2023-03-22T04:52:17;0.90;;;0.90;;
10082;SDS011;5080;48.528;8.078;2023-03-22T04:54:47;0.90;;;0.90;;
10082;SDS011;5080;48.528;8.078;2023-03-22T05:00:02;1.00;;;1.00;;
10082;SDS011;5080;48.528;8.078;2023-03-22T05:02:34;1.07;;;1.07;;
10082;SDS011;5080;48.528;8.078;2023-03-22T05:05:03;0.77;;;0.77;;
10082;SDS011;5080;48.528;8.078;2023-03-22T05:07:36;0.80;;;0.80;;
10082;SDS011;5080;48.528;8.078;2023-03-22T05:10:11;0.75;;;0.75;;
10082;SDS011;5080;48.528;8.078;2023-03-22T05:12:43;0.80;;;0.80;;
10082;SDS011;5080;48.528;8.078;2023-03-22T05:15:24;1.00;;;1.00;;
10082;SDS011;5080;48.528;8.078;2023-03-22T05:17:52;0.80;;;0.80;;
10082;SDS011;5080;48.528;8.078;2023-03-22T05:20:21;0.90;;;0.90;;
10082;SDS011;5080;48.528;8.078;2023-03-22T05:22:55;1.20;;;1.10;;
10082;SDS011;5080;48.528;8.078;2023-03-22T05:25:28;1.00;;;1.00;;
10082;SDS011;5080;48.528;8.078;2023-03-22T05:27:57;1.00;;;1.00;;
10082;SDS011;5080;48.528;8.078;2023-03-22T05:30:28;0.90;;;0.90;;
10082;SDS011;5080;48.528;8.078;2023-03-22T05:32:56;0.93;;;0.93;;
10082;SDS011;5080;48.528;8.078;2023-03-22T05:35:27;1.20;;;1.20;;
10082;SDS011;5080;48.528;8.078;2023-03-22T05:37:55;1.10;;;1.10;;
10082;SDS011;5080;48.528;8.078;2023-03-22T05:40:35;1.23;;;1.13;;
10082;SDS011;5080;48.528;8.078;2023-03-22T05:43:12;1.00;;;1.00;;
10082;SDS011;5080;48.528;8.078;2023-03-22T05:45:44;1.03;;;1.03;;
10082;SDS011;5080;48.528;8.078;2023-03-22T05:48:14;0.98;;;0.98;;
10082;SDS011;5080;48.528;8.078;2023-03-22T05:50:48;1.17;;;1.13;;
10082;SDS011;5080;48.528;8.078;2023-03-22T05:53:21;2.55;;;1.00;;
10082;SDS011;5080;48.528;8.078;2023-03-22T05:55:52;0.90;;;0.90;;
10082;SDS011;5080;48.528;8.078;2023-03-22T05:58:24;0.90;;;0.90;;
10082;SDS011;5080;48.528;8.078;2023-03-22T06:00:56;0.90;;;0.90;;
10082;SDS011;5080;48.528;8.078;2023-03-22T06:03:27;0.90;;;0.90;;
10082;SDS011;5080;48.528;8.078;2023-03-22T06:05:56;1.00;;;1.00;;
10082;SDS011;5080;48.528;8.078;2023-03-22T06:08:23;0.90;;;0.90;;
10082;SDS011;5080;48.528;8.078;2023-03-22T06:10:52;1.00;;;1.00;;
10082;SDS011;5080;48.528;8.078;2023-03-22T06:13:20;0.90;;;0.90;;
10082;SDS011;5080;48.528;8.078;2023-03-22T06:15:50;1.17;;;1.10;;
10082;SDS011;5080;48.528;8.078;2023-03-22T06:18:23;1.07;;;0.97;;
10082;SDS011;5080;48.528;8.078;2023-03-22T06:20:50;1.13;;;1.10;;
10082;SDS011;5080;48.528;8.078;2023-03-22T06:23:22;1.07;;;1.07;;
10082;SDS011;5080;48.528;8.078;2023-03-22T06:25:51;1.00;;;1.00;;
10082;SDS011;5080;48.528;8.078;2023-03-22T06:28:18;1.63;;;1.10;;
10082;SDS011;5080;48.528;8.078;2023-03-22T06:30:55;0.93;;;0.93;;
10082;SDS011;5080;48.528;8.078;2023-03-22T06:33:37;1.33;;;1.13;;
10082;SDS011;5080;48.528;8.078;2023-03-22T06:36:10;0.90;;;0.90;;
10082;SDS011;5080;48.528;8.078;2023-03-22T06:38:44;1.07;;;1.07;;
10082;SDS011;5080;48.528;8.078;2023-03-22T06:41:14;1.10;;;1.00;;
10082;SDS011;5080;48.528;8.078;2023-03-22T06:43:41;0.80;;;0.80;;
10082;SDS011;5080;48.528;8.078;2023-03-22T06:46:17;0.90;;;0.90;;
10082;SDS011;5080;48.528;8.078;2023-03-22T06:48:54;1.20;;;1.10;;
10082;SDS011;5080;48.528;8.078;2023-03-22T06:54:13;1.30;;;1.30;;
10082;SDS011;5080;48.528;8.078;2023-03-22T06:56:42;1.00;;;1.00;;
10082;SDS011;5080;48.528;8.078;2023-03-22T06:59:11;1.17;;;1.10;;
10082;SDS011;5080;48.528;8.078;2023-03-22T07:01:38;1.00;;;1.00;;
10082;SDS011;5080;48.528;8.078;2023-03-22T07:04:08;1.00;;;1.00;;
10082;SDS011;5080;48.528;8.078;2023-03-22T07:06:38;1.00;;;1.00;;
10082;SDS011;5080;48.528;8.078;2023-03-22T07:09:05;1.00;;;1.00;;
10082;SDS011;5080;48.528;8.078;2023-03-22T07:11:32;1.00;;;1.00;;
10082;SDS011;5080;48.528;8.078;2023-03-22T07:13:59;1.10;;;1.10;;
10082;SDS011;5080;48.528;8.078;2023-03-22T07:16:26;1.20;;;1.20;;
10082;SDS011;5080;48.528;8.078;2023-03-22T07:18:52;1.13;;;1.10;;
10082;SDS011;5080;48.528;8.078;2023-03-22T07:21:21;1.20;;;1.20;;
10082;SDS011;5080;48.528;8.078;2023-03-22T07:23:48;1.17;;;1.17;;
10082;SDS011;5080;48.528;8.078;2023-03-22T07:26:15;0.90;;;0.90;;
10082;SDS011;5080;48.528;8.078;2023-03-22T07:28:42;0.90;;;0.90;;
10082;SDS011;5080;48.528;8.078;2023-03-22T07:31:09;1.03;;;1.03;;
10082;SDS011;5080;48.528;8.078;2023-03-22T07:33:37;0.90;;;0.90;;
10082;SDS011;5080;48.528;8.078;2023-03-22T07:36:05;1.17;;;1.10;;
10082;SDS011;5080;48.528;8.078;2023-03-22T07:38:35;1.07;;;0.90;;
10082;SDS011;5080;48.528;8.078;2023-03-22T07:41:02;1.10;;;1.00;;
10082;SDS011;5080;48.528;8.078;2023-03-22T07:43:30;0.80;;;0.80;;
10082;SDS011;5080;48.528;8.078;2023-03-22T07:45:58;1.00;;;1.00;;
10082;SDS011;5080;48.528;8.078;2023-03-22T07:48:25;0.80;;;0.80;;
10082;SDS011;5080;48.528;8.078;2023-03-22T07:50:55;0.80;;;0.80;;
10082;SDS011;5080;48.528;8.078;2023-03-22T07:53:21;1.03;;;1.03;;
10082;SDS011;5080;48.528;8.078;2023-03-22T07:55:49;0.80;;;0.80;;
10082;SDS011;5080;48.528;8.078;2023-03-22T07:58:16;0.80;;;0.80;;
10082;SDS011;5080;48.528;8.078;2023-03-22T08:00:43;0.90;;;0.90;;
10082;SDS011;5080;48.528;8.078;2023-03-22T08:03:13;0.90;;;0.90;;
10082;SDS011;5080;48.528;8.078;2023-03-22T08:05:40;0.80;;;0.80;;
10082;SDS011;5080;48.528;8.078;2023-03-22T08:08:08;1.00;;;1.00;;
10082;SDS011;5080;48.528;8.078;2023-03-22T08:10:37;0.70;;;0.70;;
10082;SDS011;5080;48.528;8.078;2023-03-22T08:13:05;0.60;;;0.60;;
10082;SDS011;5080;48.528;8.078;2023-03-22T08:15:33;1.07;;;1.00;;
10082;SDS011;5080;48.528;8.078;2023-03-22T08:18:01;0.60;;;0.60;;
10082;SDS011;5080;48.528;8.078;2023-03-22T08:20:28;0.63;;;0.63;;
10082;SDS011;5080;48.528;8.078;2023-03-22T08:22:54;0.60;;;0.60;;
10082;SDS011;5080;48.528;8.078;2023-03-22T08:25:21;0.60;;;0.60;;
10082;SDS011;5080;48.528;8.078;2023-03-22T08:27:48;0.70;;;0.70;;
10082;SDS011;5080;48.528;8.078;2023-03-22T08:30:16;0.77;;;0.77;;
10082;SDS011;5080;48.528;8.078;2023-03-22T08:32:43;0.83;;;0.83;;
10082;SDS011;5080;48.528;8.078;2023-03-22T08:35:10;0.60;;;0.60;;
10082;SDS011;5080;48.528;8.078;2023-03-22T08:37:37;0.60;;;0.60;;
10082;SDS011;5080;48.528;8.078;2023-03-22T08:40:06;0.73;;;0.73;;
10082;SDS011;5080;48.528;8.078;2023-03-22T08:42:34;0.70;;;0.70;;
10082;SDS011;5080;48.528;8.078;2023-03-22T08:45:01;0.60;;;0.60;;
10082;SDS011;5080;48.528;8.078;2023-03-22T08:47:30;0.70;;;0.70;;
10082;SDS011;5080;48.528;8.078;2023-03-22T08:49:56;0.57;;;0.57;;
10082;SDS011;5080;48.528;8.078;2023-03-22T08:52:23;0.80;;;0.80;;
10082;SDS011;5080;48.528;8.078;2023-03-22T08:54:50;0.53;;;0.53;;
10082;SDS011;5080;48.528;8.078;2023-03-22T08:57:18;0.70;;;0.70;;
10082;SDS011;5080;48.528;8.078;2023-03-22T08:59:46;0.50;;;0.50;;
10082;SDS011;5080;48.528;8.078;2023-03-22T09:02:13;0.50;;;0.50;;
10082;SDS011;5080;48.528;8.078;2023-03-22T09:04:41;0.60;;;0.60;;
10082;SDS011;5080;48.528;8.078;2023-03-22T09:07:08;0.60;;;0.60;;
10082;SDS011;5080;48.528;8.078;2023-03-22T09:09:35;0.90;;;0.90;;
10082;SDS011;5080;48.528;8.078;2023-03-22T09:12:02;0.43;;;0.43;;
10082;SDS011;5080;48.528;8.078;2023-03-22T09:14:29;0.43;;;0.43;;
10082;SDS011;5080;48.528;8.078;2023-03-22T09:16:56;0.57;;;0.40;;
10082;SDS011;5080;48.528;8.078;2023-03-22T09:19:22;0.60;;;0.60;;
10082;SDS011;5080;48.528;8.078;2023-03-22T09:21:51;0.50;;;0.50;;
10082;SDS011;5080;48.528;8.078;2023-03-22T09:24:18;0.50;;;0.50;;
10082;SDS011;5080;48.528;8.078;2023-03-22T09:26:45;0.60;;;0.60;;
10082;SDS011;5080;48.528;8.078;2023-03-22T09:29:12;0.70;;;0.70;;
10082;SDS011;5080;48.528;8.078;2023-03-22T09:31:39;0.60;;;0.60;;
10082;SDS011;5080;48.528;8.078;2023-03-22T09:34:06;0.70;;;0.70;;
10082;SDS011;5080;48.528;8.078;2023-03-22T09:36:33;0.70;;;0.70;;
10082;SDS011;5080;48.528;8.078;2023-03-22T09:39:01;0.60;;;0.60;;
10082;SDS011;5080;48.528;8.078;2023-03-22T09:41:32;0.55;;;0.55;;
10082;SDS011;5080;48.528;8.078;2023-03-22T09:44:03;0.60;;;0.60;;
10082;SDS011;5080;48.528;8.078;2023-03-22T09:46:34;0.50;;;0.50;;
10082;SDS011;5080;48.528;8.078;2023-03-22T09:49:04;0.60;;;0.60;;
10082;SDS011;5080;48.528;8.078;2023-03-22T09:51:38;0.73;;;0.73;;
10082;SDS011;5080;48.528;8.078;2023-03-22T09:54:12;0.87;;;0.87;;
10082;SDS011;5080;48.528;8.078;2023-03-22T09:56:42;0.73;;;0.73;;
10082;SDS011;5080;48.528;8.078;2023-03-22T09:59:13;0.82;;;0.80;;
10082;SDS011;5080;48.528;8.078;2023-03-22T10:01:46;0.77;;;0.77;;
10082;SDS011;5080;48.528;8.078;2023-03-22T10:04:24;0.70;;;0.70;;
10082;SDS011;5080;48.528;8.078;2023-03-22T10:07:02;0.57;;;0.57;;
10082;SDS011;5080;48.528;8.078;2023-03-22T10:09:35;0.60;;;0.60;;
10082;SDS011;5080;48.528;8.078;2023-03-22T10:12:08;0.50;;;0.50;;
10082;SDS011;5080;48.528;8.078;2023-03-22T10:14:42;0.50;;;0.50;;
10082;SDS011;5080;48.528;8.078;2023-03-22T10:17:15;0.60;;;0.60;;
10082;SDS011;5080;48.528;8.078;2023-03-22T10:19:47;0.50;;;0.50;;
10082;SDS011;5080;48.528;8.078;2023-03-22T10:22:19;0.57;;;0.57;;
10082;SDS011;5080;48.528;8.078;2023-03-22T10:24:51;0.50;;;0.50;;
10082;SDS011;5080;48.528;8.078;2023-03-22T10:27:20;0.67;;;0.67;;
10082;SDS011;5080;48.528;8.078;2023-03-22T10:29:49;0.60;;;0.60;;
10082;SDS011;5080;48.528;8.078;2023-03-22T10:32:19;0.73;;;0.50;;
10082;SDS011;5080;48.528;8.078;2023-03-22T10:34:52;0.45;;;0.45;;
10082;SDS011;5080;48.528;8.078;2023-03-22T10:37:20;0.50;;;0.50;;
10082;SDS011;5080;48.528;8.078;2023-03-22T10:39:51;0.50;;;0.50;;
10082;SDS011;5080;48.528;8.078;2023-03-22T10:42:21;0.40;;;0.40;;
10082;SDS011;5080;48.528;8.078;2023-03-22T10:44:50;0.30;;;0.30;;
10082;SDS011;5080;48.528;8.078;2023-03-22T10:47:24;0.60;;;0.60;;
10082;SDS011;5080;48.528;8.078;2023-03-22T10:49:56;0.40;;;0.40;;
10082;SDS011;5080;48.528;8.078;2023-03-22T10:52:32;0.50;;;0.50;;
10082;SDS011;5080;48.528;8.078;2023-03-22T10:55:07;0.60;;;0.60;;
10082;SDS011;5080;48.528;8.078;2023-03-22T10:57:36;0.50;;;0.50;;
10082;SDS011;5080;48.528;8.078;2023-03-22T11:00:04;0.50;;;0.50;;
10082;SDS011;5080;48.528;8.078;2023-03-22T11:02:37;0.33;;;0.33;;
10082;SDS011;5080;48.528;8.078;2023-03-22T11:05:17;0.57;;;0.57;;
10082;SDS011;5080;48.528;8.078;2023-03-22T11:07:46;0.40;;;0.40;;
10082;SDS011;5080;48.528;8.078;2023-03-22T11:10:20;0.50;;;0.50;;
10082;SDS011;5080;48.528;8.078;2023-03-22T11:12:52;0.50;;;0.50;;
10082;SDS011;5080;48.528;8.078;2023-03-22T11:15:22;0.68;;;0.68;;
10082;SDS011;5080;48.528;8.078;2023-03-22T11:17:52;0.80;;;0.80;;
10082;SDS011;5080;48.528;8.078;2023-03-22T11:20:23;0.90;;;0.90;;
10082;SDS011;5080;48.528;8.078;2023-03-22T11:22:50;0.60;;;0.60;;
10082;SDS011;5080;48.528;8.078;2023-03-22T11:25:20;0.40;;;0.40;;
10082;SDS011;5080;48.528;8.078;2023-03-22T11:27:51;0.45;;;0.45;;
10082;SDS011;5080;48.528;8.078;2023-03-22T11:30:21;0.60;;;0.60;;
10082;SDS011;5080;48.528;8.078;2023-03-22T11:32:58;0.60;;;0.60;;
10082;SDS011;5080;48.528;8.078;2023-03-22T11:35:28;0.50;;;0.50;;
10082;SDS011;5080;48.528;8.078;2023-03-22T11:37:56;0.73;;;0.73;;
10082;SDS011;5080;48.528;8.078;2023-03-22T11:40:26;0.60;;;0.60;;
10082;SDS011;5080;48.528;8.078;2023-03-22T11:42:56;0.65;;;0.65;;
10082;SDS011;5080;48.528;8.078;2023-03-22T11:45:36;0.50;;;0.50;;
10082;SDS011;5080;48.528;8.078;2023-03-22T11:48:07;0.70;;;0.70;;
10082;SDS011;5080;48.528;8.078;2023-03-22T11:50:40;0.50;;;0.50;;
10082;SDS011;5080;48.528;8.078;2023-03-22T11:53:11;0.70;;;0.55;;
10082;SDS011;5080;48.528;8.078;2023-03-22T11:55:43;0.60;;;0.60;;
10082;SDS011;5080;48.528;8.078;2023-03-22T11:58:21;0.65;;;0.47;;
10082;SDS011;5080;48.528;8.078;2023-03-22T12:00:52;0.63;;;0.63;;
10082;SDS011;5080;48.528;8.078;2023-03-22T12:03:22;1.23;;;0.73;;
10082;SDS011;5080;48.528;8.078;2023-03-22T12:05:52;0.63;;;0.63;;
10082;SDS011;5080;48.528;8.078;2023-03-22T12:08:22;0.63;;;0.63;;
10082;SDS011;5080;48.528;8.078;2023-03-22T12:10:56;0.77;;;0.77;;
10082;SDS011;5080;48.528;8.078;2023-03-22T12:13:29;0.50;;;0.50;;
10082;SDS011;5080;48.528;8.078;2023-03-22T12:16:04;0.40;;;0.40;;
10082;SDS011;5080;48.528;8.078;2023-03-22T12:18:33;0.30;;;0.30;;
10082;SDS011;5080;48.528;8.078;2023-03-22T12:21:04;0.47;;;0.47;;
10082;SDS011;5080;48.528;8.078;2023-03-22T12:23:32;0.50;;;0.50;;
10082;SDS011;5080;48.528;8.078;2023-03-22T12:26:02;0.50;;;0.50;;
10082;SDS011;5080;48.528;8.078;2023-03-22T12:28:31;0.55;;;0.55;;
10082;SDS011;5080;48.528;8.078;2023-03-22T12:31:03;0.60;;;0.60;;
10082;SDS011;5080;48.528;8.078;2023-03-22T12:33:33;0.50;;;0.50;;
10082;SDS011;5080;48.528;8.078;2023-03-22T12:36:05;0.43;;;0.43;;
10082;SDS011;5080;48.528;8.078;2023-03-22T12:38:36;0.70;;;0.70;;
10082;SDS011;5080;48.528;8.078;2023-03-22T12:41:08;0.45;;;0.45;;
10082;SDS011;5080;48.528;8.078;2023-03-22T12:43:46;0.80;;;0.70;;
10082;SDS011;5080;48.528;8.078;2023-03-22T12:46:19;0.80;;;0.60;;
10082;SDS011;5080;48.528;8.078;2023-03-22T12:48:49;1.05;;;0.70;;
10082;SDS011;5080;48.528;8.078;2023-03-22T12:51:18;0.70;;;0.70;;
10082;SDS011;5080;48.528;8.078;2023-03-22T12:53:46;0.60;;;0.60;;
10082;SDS011;5080;48.528;8.078;2023-03-22T12:56:16;0.60;;;0.60;;
10082;SDS011;5080;48.528;8.078;2023-03-22T12:58:47;0.60;;;0.60;;
10082;SDS011;5080;48.528;8.078;2023-03-22T13:01:21;0.57;;;0.55;;
10082;SDS011;5080;48.528;8.078;2023-03-22T13:03:54;0.40;;;0.40;;
10082;SDS011;5080;48.528;8.078;2023-03-22T13:06:29;0.80;;;0.80;;
10082;SDS011;5080;48.528;8.078;2023-03-22T13:09:19;0.60;;;0.60;;
10082;SDS011;5080;48.528;8.078;2023-03-22T13:14:58;0.70;;;0.70;;
10082;SDS011;5080;48.528;8.078;2023-03-22T13:17:32;0.70;;;0.70;;
10082;SDS011;5080;48.528;8.078;2023-03-22T13:20:21;0.52;;;0.52;;
10082;SDS011;5080;48.528;8.078;2023-03-22T13:25:58;0.63;;;0.63;;
10082;SDS011;5080;48.528;8.078;2023-03-22T13:28:28;0.68;;;0.68;;
10082;SDS011;5080;48.528;8.078;2023-03-22T13:31:01;0.47;;;0.47;;
10082;SDS011;5080;48.528;8.078;2023-03-22T13:33:29;0.68;;;0.68;;
10082;SDS011;5080;48.528;8.078;2023-03-22T13:35:59;0.70;;;0.70;;
10082;SDS011;5080;48.528;8.078;2023-03-22T13:38:32;0.70;;;0.70;;
10082;SDS011;5080;48.528;8.078;2023-03-22T13:41:01;0.60;;;0.60;;
10082;SDS011;5080;48.528;8.078;2023-03-22T13:43:32;0.70;;;0.70;;
10082;SDS011;5080;48.528;8.078;2023-03-22T13:46:03;0.70;;;0.70;;
10082;SDS011;5080;48.528;8.078;2023-03-22T13:48:53;0.55;;;0.55;;
10082;SDS011;5080;48.528;8.078;2023-03-22T13:51:40;0.63;;;0.63;;
10082;SDS011;5080;48.528;8.078;2023-03-22T13:54:09;0.45;;;0.45;;
10082;SDS011;5080;48.528;8.078;2023-03-22T13:56:47;0.67;;;0.67;;
10082;SDS011;5080;48.528;8.078;2023-03-22T13:59:23;1.48;;;0.60;;
10082;SDS011;5080;48.528;8.078;2023-03-22T14:01:55;0.60;;;0.60;;
10082;SDS011;5080;48.528;8.078;2023-03-22T14:04:27;0.50;;;0.50;;
10082;SDS011;5080;48.528;8.078;2023-03-22T14:06:59;0.82;;;0.82;;
10082;SDS011;5080;48.528;8.078;2023-03-22T14:09:32;0.52;;;0.52;;
10082;SDS011;5080;48.528;8.078;2023-03-22T14:12:05;0.60;;;0.60;;
10082;SDS011;5080;48.528;8.078;2023-03-22T14:14:41;0.60;;;0.60;;
10082;SDS011;5080;48.528;8.078;2023-03-22T14:17:12;0.77;;;0.77;;
10082;SDS011;5080;48.528;8.078;2023-03-22T14:19:46;1.08;;;0.70;;
10082;SDS011;5080;48.528;8.078;2023-03-22T14:22:16;0.50;;;0.50;;
10082;SDS011;5080;48.528;8.078;2023-03-22T14:24:53;0.82;;;0.70;;
10082;SDS011;5080;48.528;8.078;2023-03-22T14:27:21;0.52;;;0.52;;
10082;SDS011;5080;48.528;8.078;2023-03-22T14:29:51;0.80;;;0.80;;
10082;SDS011;5080;48.528;8.078;2023-03-22T14:32:20;0.80;;;0.70;;
10082;SDS011;5080;48.528;8.078;2023-03-22T14:34:56;0.70;;;0.70;;
10082;SDS011;5080;48.528;8.078;2023-03-22T14:37:27;0.70;;;0.70;;
10082;SDS011;5080;48.528;8.078;2023-03-22T14:39:55;0.70;;;0.70;;
10082;SDS011;5080;48.528;8.078;2023-03-22T14:42:25;0.77;;;0.77;;
10082;SDS011;5080;48.528;8.078;2023-03-22T14:44:56;0.60;;;0.60;;
10082;SDS011;5080;48.528;8.078;2023-03-22T14:47:25;0.60;;;0.60;;
10082;SDS011;5080;48.528;8.078;2023-03-22T14:49:57;0.50;;;0.50;;
10082;SDS011;5080;48.528;8.078;2023-03-22T14:52:29;0.50;;;0.50;;
10082;SDS011;5080;48.528;8.078;2023-03-22T14:54:58;0.70;;;0.70;;
10082;SDS011;5080;48.528;8.078;2023-03-22T14:57:27;0.60;;;0.60;;
10082;SDS011;5080;48.528;8.078;2023-03-22T14:59:56;0.93;;;0.60;;
10082;SDS011;5080;48.528;8.078;2023-03-22T15:02:29;0.50;;;0.50;;
10082;SDS011;5080;48.528;8.078;2023-03-22T15:05:03;0.50;;;0.50;;
10082;SDS011;5080;48.528;8.078;2023-03-22T15:07:32;0.50;;;0.50;;
10082;SDS011;5080;48.528;8.078;2023-03-22T15:10:10;0.60;;;0.60;;
10082;SDS011;5080;48.528;8.078;2023-03-22T15:12:39;0.50;;;0.50;;
10082;SDS011;5080;48.528;8.078;2023-03-22T15:15:09;0.88;;;0.65;;
10082;SDS011;5080;48.528;8.078;2023-03-22T15:17:37;0.63;;;0.63;;
10082;SDS011;5080;48.528;8.078;2023-03-22T15:20:06;0.60;;;0.60;;
10082;SDS011;5080;48.528;8.078;2023-03-22T15:22:33;0.60;;;0.60;;
10082;SDS011;5080;48.528;8.078;2023-03-22T15:25:02;0.60;;;0.60;;
10082;SDS011;5080;48.528;8.078;2023-03-22T15:27:31;0.55;;;0.55;;
10082;SDS011;5080;48.528;8.078;2023-03-22T15:29:58;0.60;;;0.60;;
10082;SDS011;5080;48.528;8.078;2023-03-22T15:32:27;0.52;;;0.52;;
10082;SDS011;5080;48.528;8.078;2023-03-22T15:34:54;0.40;;;0.40;;
10082;SDS011;5080;48.528;8.078;2023-03-22T15:37:24;0.60;;;0.60;;
10082;SDS011;5080;48.528;8.078;2023-03-22T15:39:54;0.70;;;0.70;;
10082;SDS011;5080;48.528;8.078;2023-03-22T15:42:24;0.50;;;0.50;;
10082;SDS011;5080;48.528;8.078;2023-03-22T15:44:53;0.40;;;0.40;;
10082;SDS011;5080;48.528;8.078;2023-03-22T15:47:23;0.60;;;0.60;;
10082;SDS011;5080;48.528;8.078;2023-03-22T15:49:54;0.63;;;0.63;;
10082;SDS011;5080;48.528;8.078;2023-03-22T15:52:23;0.88;;;0.68;;
10082;SDS011;5080;48.528;8.078;2023-03-22T15:54:58;0.50;;;0.50;;